sensor_id;sensor_type;location;lat;lon;timestamp;temperature;humidity
37890;DHT22;23730;49.120;12.214;2022-07-23T06:07:59;18.90;99.90
37890;DHT22;23730;49.120;12.214;2022-07-23T06:13:02;19.20;99.90
37890;DHT22;23730;49.120;12.214;2022-07-23T06:18:05;19.60;99.90
37890;DHT22;23730;49.120;12.214;2022-07-23T06:23:07;19.90;99.90
37890;DHT22;23730;49.120;12.214;2022-07-23T06:28:09;20.30;99.90
37890;DHT22;23730;49.120;12.214;2022-07-23T06:33:11;20.40;99.90
37890;DHT22;23730;49.120;12.214;2022-07-23T06:38:14;20.30;99.90
37890;DHT22;23730;49.120;12.214;2022-07-23T06:43:16;20.30;99.90
37890;DHT22;23730;49.120;12.214;2022-07-23T06:48:19;20.40;99.90
37890;DHT22;23730;49.120;12.214;2022-07-23T06:53:21;20.40;99.90
37890;DHT22;23730;49.120;12.214;2022-07-23T06:58:23;20.60;99.90
37890;DHT22;23730;49.120;12.214;2022-07-23T07:03:25;20.70;99.90
37890;DHT22;23730;49.120;12.214;2022-07-23T07:08:27;20.90;99.90
37890;DHT22;23730;49.120;12.214;2022-07-23T07:13:30;21.30;99.90
37890;DHT22;23730;49.120;12.214;2022-07-23T07:18:32;21.60;99.90
37890;DHT22;23730;49.120;12.214;2022-07-23T07:23:34;21.50;99.90
37890;DHT22;23730;49.120;12.214;2022-07-23T07:28:36;21.40;99.90
37890;DHT22;23730;49.120;12.214;2022-07-23T07:33:38;21.70;99.90
37890;DHT22;23730;49.120;12.214;2022-07-23T07:38:40;21.90;99.90
37890;DHT22;23730;49.120;12.214;2022-07-23T07:43:42;21.90;99.90
37890;DHT22;23730;49.120;12.214;2022-07-23T07:48:44;22.00;99.90
37890;DHT22;23730;49.120;12.214;2022-07-23T07:53:46;22.60;99.90
37890;DHT22;23730;49.120;12.214;2022-07-23T07:58:48;23.20;99.90
37890;DHT22;23730;49.120;12.214;2022-07-23T08:03:51;23.50;99.90
37890;DHT22;23730;49.120;12.214;2022-07-23T08:08:54;24.10;99.90
37890;DHT22;23730;49.120;12.214;2022-07-23T08:13:56;24.60;99.90
37890;DHT22;23730;49.120;12.214;2022-07-23T08:18:59;25.00;99.90
37890;DHT22;23730;49.120;12.214;2022-07-23T08:24:01;24.90;99.90
37890;DHT22;23730;49.120;12.214;2022-07-23T08:29:03;24.60;99.90
37890;DHT22;23730;49.120;12.214;2022-07-23T08:34:05;24.60;99.90
37890;DHT22;23730;49.120;12.214;2022-07-23T08:39:07;25.00;99.90
37890;DHT22;23730;49.120;12.214;2022-07-23T08:44:12;24.70;99.90
37890;DHT22;23730;49.120;12.214;2022-07-23T08:49:14;25.20;99.90
37890;DHT22;23730;49.120;12.214;2022-07-23T08:54:17;25.50;99.90
37890;DHT22;23730;49.120;12.214;2022-07-23T08:59:20;25.40;99.90
37890;DHT22;23730;49.120;12.214;2022-07-23T09:04:22;26.80;99.90
37890;DHT22;23730;49.120;12.214;2022-07-23T09:09:28;28.60;89.90
37890;DHT22;23730;49.120;12.214;2022-07-23T09:14:37;28.30;75.90
37890;DHT22;23730;49.120;12.214;2022-07-23T09:19:48;27.80;75.80
37890;DHT22;23730;49.120;12.214;2022-07-23T09:25:26;27.70;75.20
37890;DHT22;23730;49.120;12.214;2022-07-23T09:30:32;28.90;61.70
37890;DHT22;23730;49.120;12.214;2022-07-23T09:41:10;30.50;44.80
37890;DHT22;23730;49.120;12.214;2022-07-23T09:46:24;30.20;46.90
37890;DHT22;23730;49.120;12.214;2022-07-23T09:51:27;30.20;46.80
37890;DHT22;23730;49.120;12.214;2022-07-23T09:56:35;30.10;48.00
37890;DHT22;23730;49.120;12.214;2022-07-23T10:01:38;31.00;46.50
37890;DHT22;23730;49.120;12.214;2022-07-23T10:06:42;31.90;39.20
37890;DHT22;23730;49.120;12.214;2022-07-23T10:12:14;30.80;42.80
37890;DHT22;23730;49.120;12.214;2022-07-23T10:17:36;30.60;46.30
37890;DHT22;23730;49.120;12.214;2022-07-23T10:23:00;30.30;43.90
37890;DHT22;23730;49.120;12.214;2022-07-23T10:34:07;30.50;43.70
37890;DHT22;23730;49.120;12.214;2022-07-23T10:44:41;33.90;40.00
37890;DHT22;23730;49.120;12.214;2022-07-23T10:49:47;34.40;36.90
37890;DHT22;23730;49.120;12.214;2022-07-23T11:05:21;36.70;30.80
37890;DHT22;23730;49.120;12.214;2022-07-23T11:10:39;33.90;31.20
37890;DHT22;23730;49.120;12.214;2022-07-23T11:36:59;25.30;79.00
37890;DHT22;23730;49.120;12.214;2022-07-23T11:42:04;25.00;76.80
37890;DHT22;23730;49.120;12.214;2022-07-23T11:47:10;25.30;79.90
37890;DHT22;23730;49.120;12.214;2022-07-23T11:52:15;25.80;65.70
37890;DHT22;23730;49.120;12.214;2022-07-23T11:57:19;26.60;70.00
37890;DHT22;23730;49.120;12.214;2022-07-23T12:02:22;27.70;60.20
37890;DHT22;23730;49.120;12.214;2022-07-23T12:07:37;29.90;54.10
37890;DHT22;23730;49.120;12.214;2022-07-23T12:13:07;32.60;40.20
37890;DHT22;23730;49.120;12.214;2022-07-23T12:18:16;34.60;35.10
37890;DHT22;23730;49.120;12.214;2022-07-23T12:23:23;32.70;37.00
37890;DHT22;23730;49.120;12.214;2022-07-23T12:28:31;30.70;40.00
37890;DHT22;23730;49.120;12.214;2022-07-23T12:33:38;30.40;39.30
37890;DHT22;23730;49.120;12.214;2022-07-23T12:38:52;33.70;37.00
37890;DHT22;23730;49.120;12.214;2022-07-23T12:43:54;36.10;31.30
37890;DHT22;23730;49.120;12.214;2022-07-23T12:48:56;33.70;33.10
37890;DHT22;23730;49.120;12.214;2022-07-23T12:54:07;32.20;37.20
37890;DHT22;23730;49.120;12.214;2022-07-23T12:59:13;32.10;35.50
37890;DHT22;23730;49.120;12.214;2022-07-23T13:04:21;33.60;36.50
37890;DHT22;23730;49.120;12.214;2022-07-23T13:09:26;32.10;33.50
37890;DHT22;23730;49.120;12.214;2022-07-23T13:14:34;32.60;32.80
37890;DHT22;23730;49.120;12.214;2022-07-23T13:19:36;32.40;33.40
37890;DHT22;23730;49.120;12.214;2022-07-23T13:24:38;34.50;32.40
37890;DHT22;23730;49.120;12.214;2022-07-23T13:29:40;32.80;32.60
37890;DHT22;23730;49.120;12.214;2022-07-23T13:34:43;31.90;37.60
37890;DHT22;23730;49.120;12.214;2022-07-23T13:39:45;31.20;41.30
37890;DHT22;23730;49.120;12.214;2022-07-23T13:44:48;30.30;42.50
37890;DHT22;23730;49.120;12.214;2022-07-23T13:49:50;29.60;43.50
37890;DHT22;23730;49.120;12.214;2022-07-23T13:54:52;29.60;41.90
37890;DHT22;23730;49.120;12.214;2022-07-23T13:59:54;29.40;48.70
37890;DHT22;23730;49.120;12.214;2022-07-23T14:04:56;28.70;45.30
37890;DHT22;23730;49.120;12.214;2022-07-23T14:09:58;27.60;48.40
37890;DHT22;23730;49.120;12.214;2022-07-23T14:15:30;27.40;50.10
37890;DHT22;23730;49.120;12.214;2022-07-23T14:20:33;27.40;56.80
37890;DHT22;23730;49.120;12.214;2022-07-23T14:25:35;27.20;51.20
37890;DHT22;23730;49.120;12.214;2022-07-23T14:30:40;27.30;53.50
37890;DHT22;23730;49.120;12.214;2022-07-23T14:35:42;29.50;48.60
37890;DHT22;23730;49.120;12.214;2022-07-23T14:40:45;30.70;44.60
37890;DHT22;23730;49.120;12.214;2022-07-23T14:45:49;30.70;41.80
37890;DHT22;23730;49.120;12.214;2022-07-23T14:50:51;30.80;41.20
37890;DHT22;23730;49.120;12.214;2022-07-23T14:55:54;30.20;42.20
37890;DHT22;23730;49.120;12.214;2022-07-23T15:00:58;28.80;43.70
37890;DHT22;23730;49.120;12.214;2022-07-23T15:06:01;27.60;47.40
37890;DHT22;23730;49.120;12.214;2022-07-23T15:11:03;27.30;50.90
37890;DHT22;23730;49.120;12.214;2022-07-23T15:16:05;27.50;51.40
37890;DHT22;23730;49.120;12.214;2022-07-23T15:21:11;27.80;50.40
37890;DHT22;23730;49.120;12.214;2022-07-23T15:26:13;27.80;50.50
37890;DHT22;23730;49.120;12.214;2022-07-23T15:31:16;28.10;48.40
37890;DHT22;23730;49.120;12.214;2022-07-23T15:36:19;27.80;49.10
37890;DHT22;23730;49.120;12.214;2022-07-23T15:41:22;27.30;52.10
37890;DHT22;23730;49.120;12.214;2022-07-23T15:46:24;26.90;54.20
37890;DHT22;23730;49.120;12.214;2022-07-23T15:51:28;26.10;54.60
37890;DHT22;23730;49.120;12.214;2022-07-23T15:56:32;25.80;59.80
37890;DHT22;23730;49.120;12.214;2022-07-23T16:01:34;25.90;56.90
37890;DHT22;23730;49.120;12.214;2022-07-23T16:06:36;26.30;58.60
37890;DHT22;23730;49.120;12.214;2022-07-23T16:11:39;26.80;55.00
37890;DHT22;23730;49.120;12.214;2022-07-23T16:16:42;28.20;52.90
37890;DHT22;23730;49.120;12.214;2022-07-23T16:21:44;29.70;48.90
37890;DHT22;23730;49.120;12.214;2022-07-23T16:26:46;28.50;46.90
37890;DHT22;23730;49.120;12.214;2022-07-23T16:31:48;27.20;49.30
37890;DHT22;23730;49.120;12.214;2022-07-23T16:36:50;26.40;51.20
37890;DHT22;23730;49.120;12.214;2022-07-23T16:41:52;26.30;54.20
37890;DHT22;23730;49.120;12.214;2022-07-23T16:46:54;26.90;51.40
37890;DHT22;23730;49.120;12.214;2022-07-23T16:51:56;26.90;50.20
37890;DHT22;23730;49.120;12.214;2022-07-23T16:56:58;27.00;46.90
37890;DHT22;23730;49.120;12.214;2022-07-23T17:02:00;27.10;47.40
37890;DHT22;23730;49.120;12.214;2022-07-23T17:07:03;26.80;46.00
37890;DHT22;23730;49.120;12.214;2022-07-23T17:12:08;26.50;47.30
37890;DHT22;23730;49.120;12.214;2022-07-23T17:17:10;26.30;48.70
37890;DHT22;23730;49.120;12.214;2022-07-23T17:22:13;26.10;49.30
37890;DHT22;23730;49.120;12.214;2022-07-23T17:27:16;25.70;49.20
37890;DHT22;23730;49.120;12.214;2022-07-23T17:32:19;25.10;51.80
37890;DHT22;23730;49.120;12.214;2022-07-23T17:37:21;24.80;56.30
37890;DHT22;23730;49.120;12.214;2022-07-23T17:42:23;24.80;56.70
37890;DHT22;23730;49.120;12.214;2022-07-23T17:47:25;24.70;60.40
37890;DHT22;23730;49.120;12.214;2022-07-23T17:52:27;24.50;60.20
37890;DHT22;23730;49.120;12.214;2022-07-23T17:57:29;24.10;69.70
37890;DHT22;23730;49.120;12.214;2022-07-23T18:02:31;23.80;75.60
37890;DHT22;23730;49.120;12.214;2022-07-23T18:07:33;23.70;81.40
37890;DHT22;23730;49.120;12.214;2022-07-23T18:12:35;23.60;82.20
37890;DHT22;23730;49.120;12.214;2022-07-23T18:17:38;23.50;91.50
37890;DHT22;23730;49.120;12.214;2022-07-23T18:22:40;23.30;95.40
37890;DHT22;23730;49.120;12.214;2022-07-23T18:27:43;23.40;95.30
37890;DHT22;23730;49.120;12.214;2022-07-23T18:32:49;23.30;97.50
37890;DHT22;23730;49.120;12.214;2022-07-23T18:37:51;23.20;98.70
37890;DHT22;23730;49.120;12.214;2022-07-23T18:42:54;23.10;99.90
37890;DHT22;23730;49.120;12.214;2022-07-23T18:47:58;22.70;99.90
37890;DHT22;23730;49.120;12.214;2022-07-23T18:53:00;22.30;99.90
37890;DHT22;23730;49.120;12.214;2022-07-23T18:58:03;22.10;99.90
37890;DHT22;23730;49.120;12.214;2022-07-23T19:03:05;21.80;99.90
37890;DHT22;23730;49.120;12.214;2022-07-23T19:08:08;21.70;99.90
37890;DHT22;23730;49.120;12.214;2022-07-23T19:13:10;21.50;99.90
37890;DHT22;23730;49.120;12.214;2022-07-23T19:18:13;21.50;99.90
37890;DHT22;23730;49.120;12.214;2022-07-23T19:23:15;21.30;99.90
37890;DHT22;23730;49.120;12.214;2022-07-23T19:28:17;21.20;99.90
37890;DHT22;23730;49.120;12.214;2022-07-23T19:33:19;21.00;99.90
37890;DHT22;23730;49.120;12.214;2022-07-23T19:38:21;20.90;99.90
37890;DHT22;23730;49.120;12.214;2022-07-23T19:43:23;20.80;99.90
37890;DHT22;23730;49.120;12.214;2022-07-23T19:48:25;20.90;99.90
37890;DHT22;23730;49.120;12.214;2022-07-23T19:53:28;20.90;99.90
37890;DHT22;23730;49.120;12.214;2022-07-23T19:58:30;20.90;99.90
37890;DHT22;23730;49.120;12.214;2022-07-23T20:03:32;20.80;99.90
37890;DHT22;23730;49.120;12.214;2022-07-23T20:08:34;20.70;99.90
37890;DHT22;23730;49.120;12.214;2022-07-23T20:13:36;20.70;99.90
37890;DHT22;23730;49.120;12.214;2022-07-23T20:18:39;20.90;99.90
37890;DHT22;23730;49.120;12.214;2022-07-23T20:23:47;20.90;99.90
37890;DHT22;23730;49.120;12.214;2022-07-23T20:28:49;20.90;99.90
37890;DHT22;23730;49.120;12.214;2022-07-23T20:33:51;20.60;99.90
37890;DHT22;23730;49.120;12.214;2022-07-23T20:38:53;20.40;99.90
